Time;durP1;ratioP1;P1;durP2;ratioP2;P2;SDS_P1;SDS_P2;PMS_P1;PMS_P2;Temp;Humidity;BMP_temperature;BMP_pressure;BME280_temperature;BME280_humidity;BME280_pressure;Samples;Min_cycle;Max_cycle;Signal;HPM_P1;HPM_P2
2022/05/02 00:01:48;;;;;;;9.13;5.40;;;;;;;;;;5020271;28;20518;-80
2022/05/02 00:04:14;;;;;;;10.57;4.82;;;;;;;;;;5023059;28;20542;-82
2022/05/02 00:06:40;;;;;;;6.65;5.03;;;;;;;;;;4989982;28;20485;-82
2022/05/02 00:09:06;;;;;;;12.07;5.45;;;;;;;;;;5001057;28;20527;-82
2022/05/02 00:11:32;;;;;;;5.57;4.72;;;;;;;;;;5002381;28;20116;-81
2022/05/02 00:13:58;;;;;;;9.30;5.05;;;;;;;;;;4998970;28;21799;-81
2022/05/02 00:16:24;;;;;;;6.95;4.80;;;;;;;;;;5019392;28;20524;-79
2022/05/02 00:18:50;;;;;;;10.88;5.75;;;;;;;;;;5000562;28;20048;-79
2022/05/02 00:21:16;;;;;;;6.75;5.13;;;;;;;;;;5020229;28;20047;-80
2022/05/02 00:23:42;;;;;;;6.32;5.72;;;;;;;;;;4986905;28;20483;-81
2022/05/02 00:26:08;;;;;;;7.60;5.07;;;;;;;;;;4997952;28;20493;-80
2022/05/02 00:28:35;;;;;;;5.93;5.32;;;;;;;;;;4985348;28;20053;-81
2022/05/02 00:31:01;;;;;;;9.25;5.70;;;;;;;;;;4998675;28;20115;-82
2022/05/02 00:33:27;;;;;;;9.70;4.78;;;;;;;;;;5019201;28;20037;-81
2022/05/02 00:35:53;;;;;;;7.05;5.30;;;;;;;;;;5017256;28;20080;-81
2022/05/02 00:38:22;;;;;;;6.75;5.38;;;;;;;;;;5020426;28;20076;-82
2022/05/02 00:40:48;;;;;;;8.25;5.90;;;;;;;;;;5017944;28;20397;-82
2022/05/02 00:43:14;;;;;;;8.68;5.28;;;;;;;;;;5019232;28;20041;-81
2022/05/02 00:45:40;;;;;;;7.65;5.38;;;;;;;;;;5001466;28;20045;-82
2022/05/02 00:48:07;;;;;;;7.88;5.50;;;;;;;;;;5000134;28;20094;-81
2022/05/02 00:50:36;;;;;;;7.63;5.15;;;;;;;;;;5000332;28;20099;-81
2022/05/02 00:53:04;;;;;;;8.52;5.57;;;;;;;;;;5001466;28;20048;-81
2022/05/02 00:55:30;;;;;;;9.35;5.20;;;;;;;;;;4984204;28;20038;-81
2022/05/02 00:57:58;;;;;;;9.68;5.20;;;;;;;;;;5015157;28;20664;-82
2022/05/02 01:00:24;;;;;;;7.60;5.30;;;;;;;;;;4999213;28;20056;-81
2022/05/02 01:02:50;;;;;;;7.10;5.60;;;;;;;;;;5000841;28;20056;-81
2022/05/02 01:05:16;;;;;;;5.63;4.90;;;;;;;;;;5003592;28;20076;-80
2022/05/02 01:07:42;;;;;;;5.40;4.65;;;;;;;;;;4985548;28;20605;-80
2022/05/02 01:10:08;;;;;;;7.60;4.57;;;;;;;;;;5000781;28;20566;-81
2022/05/02 01:12:34;;;;;;;6.90;3.88;;;;;;;;;;5020826;28;20045;-81
2022/05/02 01:15:00;;;;;;;6.95;4.68;;;;;;;;;;5018640;28;20037;-81
2022/05/02 01:17:26;;;;;;;7.40;4.38;;;;;;;;;;5018051;28;20119;-81
2022/05/02 01:19:53;;;;;;;6.45;4.65;;;;;;;;;;5014295;28;20055;-80
2022/05/02 01:22:19;;;;;;;5.95;4.30;;;;;;;;;;5000885;28;20055;-81
2022/05/02 01:24:46;;;;;;;6.50;4.15;;;;;;;;;;5019300;28;20093;-82
2022/05/02 01:27:12;;;;;;;8.27;4.60;;;;;;;;;;5004173;28;20041;-80
2022/05/02 01:29:41;;;;;;;7.97;4.78;;;;;;;;;;4982665;28;20111;-80
2022/05/02 01:32:08;;;;;;;6.32;5.43;;;;;;;;;;4996675;28;20056;-80
2022/05/02 01:34:34;;;;;;;11.30;5.85;;;;;;;;;;5001070;28;20056;-80
2022/05/02 01:37:04;;;;;;;7.53;5.10;;;;;;;;;;5001492;28;20927;-80
2022/05/02 01:39:30;;;;;;;6.47;5.43;;;;;;;;;;4998771;28;20048;-80
2022/05/02 01:42:00;;;;;;;6.65;5.75;;;;;;;;;;5000855;28;20060;-80
2022/05/02 01:44:26;;;;;;;10.20;5.85;;;;;;;;;;5003360;28;20053;-81
2022/05/02 01:46:52;;;;;;;8.13;5.70;;;;;;;;;;5000604;28;20042;-79
2022/05/02 01:49:18;;;;;;;10.05;6.25;;;;;;;;;;5026642;28;20068;-79
2022/05/02 01:51:44;;;;;;;9.27;6.40;;;;;;;;;;4997865;28;20041;-78
2022/05/02 01:54:10;;;;;;;10.55;6.25;;;;;;;;;;5006347;28;20046;-79
2022/05/02 01:56:36;;;;;;;10.73;6.28;;;;;;;;;;5003986;28;20030;-80
2022/05/02 01:59:03;;;;;;;8.55;6.22;;;;;;;;;;5015872;28;20117;-80
2022/05/02 02:01:29;;;;;;;9.02;6.13;;;;;;;;;;5014367;28;20099;-78
2022/05/02 02:03:56;;;;;;;7.30;5.70;;;;;;;;;;4986143;28;20111;-79
2022/05/02 02:06:22;;;;;;;9.35;5.43;;;;;;;;;;5016543;28;20098;-80
2022/05/02 02:08:49;;;;;;;8.50;5.45;;;;;;;;;;4981454;28;20049;-80
2022/05/02 02:11:16;;;;;;;7.50;5.60;;;;;;;;;;4998045;28;20061;-79
2022/05/02 02:13:42;;;;;;;8.15;5.75;;;;;;;;;;4999986;28;20124;-80
2022/05/02 02:16:10;;;;;;;6.95;5.53;;;;;;;;;;5001875;28;20041;-80
2022/05/02 02:18:40;;;;;;;7.10;5.40;;;;;;;;;;5000980;28;20382;-80
2022/05/02 02:21:07;;;;;;;8.90;5.38;;;;;;;;;;4997490;28;20370;-79
2022/05/02 02:23:33;;;;;;;5.45;4.80;;;;;;;;;;4998619;28;20038;-80
2022/05/02 02:25:59;;;;;;;5.78;5.18;;;;;;;;;;5018005;28;20048;-79
2022/05/02 02:28:25;;;;;;;7.10;5.03;;;;;;;;;;4995182;28;20104;-80
2022/05/02 02:30:51;;;;;;;7.93;5.00;;;;;;;;;;4982706;28;20060;-80
2022/05/02 02:33:18;;;;;;;8.48;5.32;;;;;;;;;;5000089;28;20045;-80
2022/05/02 02:35:44;;;;;;;8.98;5.80;;;;;;;;;;5016842;28;20139;-81
2022/05/02 02:38:12;;;;;;;6.80;5.35;;;;;;;;;;4980528;28;20049;-79
2022/05/02 02:40:39;;;;;;;8.75;5.30;;;;;;;;;;5015586;28;20030;-79
2022/05/02 02:43:06;;;;;;;7.57;5.38;;;;;;;;;;5000431;28;20049;-81
2022/05/02 02:45:32;;;;;;;11.45;5.85;;;;;;;;;;4981992;28;20047;-79
2022/05/02 02:47:58;;;;;;;8.50;5.78;;;;;;;;;;5000304;28;20386;-79
2022/05/02 02:50:24;;;;;;;9.25;5.90;;;;;;;;;;4997658;28;20405;-80
2022/05/02 02:52:50;;;;;;;7.88;5.72;;;;;;;;;;4999916;28;20041;-80
2022/05/02 02:55:16;;;;;;;9.40;5.70;;;;;;;;;;5001665;28;20041;-80
2022/05/02 02:57:42;;;;;;;6.20;5.30;;;;;;;;;;4998738;28;20056;-80
2022/05/02 03:00:09;;;;;;;8.10;5.60;;;;;;;;;;4985009;28;20068;-80
2022/05/02 03:02:38;;;;;;;6.10;5.10;;;;;;;;;;4998561;28;20037;-80
2022/05/02 03:07:49;;;;;;;7.97;5.68;;;;;;;;;;4998914;28;20055;-79
2022/05/02 03:10:15;;;;;;;8.93;6.07;;;;;;;;;;4997482;28;20042;-81
2022/05/02 03:12:42;;;;;;;9.48;6.50;;;;;;;;;;4985280;28;20041;-80
2022/05/02 03:15:08;;;;;;;9.65;6.40;;;;;;;;;;4999550;28;20125;-80
2022/05/02 03:17:34;;;;;;;9.13;6.57;;;;;;;;;;4998929;28;20048;-80
2022/05/02 03:20:00;;;;;;;7.28;6.22;;;;;;;;;;4998647;28;20058;-79
2022/05/02 03:22:26;;;;;;;9.20;6.82;;;;;;;;;;4999069;28;20099;-80
2022/05/02 03:24:52;;;;;;;6.68;5.97;;;;;;;;;;5018115;28;20528;-81
2022/05/02 03:27:19;;;;;;;9.85;6.68;;;;;;;;;;5020091;28;20753;-80
2022/05/02 03:29:45;;;;;;;10.00;6.93;;;;;;;;;;5000243;28;20053;-80
2022/05/02 03:32:11;;;;;;;9.60;6.20;;;;;;;;;;5001934;28;20517;-81
2022/05/02 03:34:37;;;;;;;7.30;6.13;;;;;;;;;;4988062;28;20049;-80
2022/05/02 03:37:03;;;;;;;10.00;6.05;;;;;;;;;;5002368;28;20056;-80
2022/05/02 03:39:29;;;;;;;10.70;6.82;;;;;;;;;;5001994;28;20038;-81
2022/05/02 03:41:55;;;;;;;9.68;6.38;;;;;;;;;;5019356;28;20037;-82
2022/05/02 03:44:21;;;;;;;9.68;6.22;;;;;;;;;;4999729;28;20045;-80
2022/05/02 03:46:47;;;;;;;7.93;6.95;;;;;;;;;;5000270;28;20409;-80
2022/05/02 03:49:13;;;;;;;10.93;7.50;;;;;;;;;;5017148;28;20053;-80
2022/05/02 03:51:39;;;;;;;8.73;7.50;;;;;;;;;;5019864;28;20135;-80
2022/05/02 03:54:05;;;;;;;11.95;8.45;;;;;;;;;;4999922;28;20045;-80
2022/05/02 03:56:31;;;;;;;9.40;8.07;;;;;;;;;;5001242;28;20504;-80
2022/05/02 03:58:57;;;;;;;9.93;7.00;;;;;;;;;;5015434;28;20029;-81
2022/05/02 04:01:23;;;;;;;14.63;7.30;;;;;;;;;;5020402;28;20068;-81
2022/05/02 04:03:50;;;;;;;8.05;7.25;;;;;;;;;;4985232;28;20199;-80
2022/05/02 04:06:16;;;;;;;8.55;7.40;;;;;;;;;;5021436;28;20052;-79
2022/05/02 04:08:42;;;;;;;11.05;7.60;;;;;;;;;;5005106;28;20049;-80
2022/05/02 04:11:08;;;;;;;9.93;7.28;;;;;;;;;;5013069;28;20046;-79
2022/05/02 04:13:34;;;;;;;12.25;7.45;;;;;;;;;;5031231;28;20550;-79
2022/05/02 04:16:00;;;;;;;13.38;7.88;;;;;;;;;;4999281;28;20069;-79
2022/05/02 04:18:26;;;;;;;12.20;8.18;;;;;;;;;;5019943;28;20038;-79
2022/05/02 04:20:52;;;;;;;11.75;7.55;;;;;;;;;;5016707;28;21433;-79
2022/05/02 04:23:18;;;;;;;12.52;7.85;;;;;;;;;;5000789;28;20077;-79
2022/05/02 04:25:44;;;;;;;11.65;8.85;;;;;;;;;;5018149;28;20068;-80
2022/05/02 04:28:11;;;;;;;16.05;10.07;;;;;;;;;;5019027;28;20088;-79
2022/05/02 04:30:41;;;;;;;15.80;10.57;;;;;;;;;;5013619;28;20069;-80
2022/05/02 04:33:07;;;;;;;16.08;10.80;;;;;;;;;;5000255;28;20033;-79
2022/05/02 04:35:33;;;;;;;13.65;10.80;;;;;;;;;;4985942;28;20136;-79
2022/05/02 04:38:01;;;;;;;14.10;11.35;;;;;;;;;;5016213;28;20041;-80
2022/05/02 04:40:27;;;;;;;17.85;12.52;;;;;;;;;;5022180;28;20049;-79
2022/05/02 04:42:53;;;;;;;15.90;12.27;;;;;;;;;;5018950;28;20048;-79
2022/05/02 04:45:19;;;;;;;18.52;11.68;;;;;;;;;;5017605;28;20041;-81
2022/05/02 04:47:45;;;;;;;15.48;12.35;;;;;;;;;;5015110;28;20171;-79
2022/05/02 04:50:11;;;;;;;15.98;12.38;;;;;;;;;;5018113;28;20049;-79
2022/05/02 04:52:37;;;;;;;15.65;12.98;;;;;;;;;;5021619;28;20620;-80
2022/05/02 04:55:03;;;;;;;18.48;12.63;;;;;;;;;;5002059;28;20520;-80
2022/05/02 04:57:29;;;;;;;20.98;13.30;;;;;;;;;;5020433;28;20128;-79
2022/05/02 04:59:55;;;;;;;18.38;14.95;;;;;;;;;;5018152;28;20107;-81
2022/05/02 05:02:22;;;;;;;17.85;13.48;;;;;;;;;;5000257;28;20879;-80
2022/05/02 05:04:48;;;;;;;16.17;12.93;;;;;;;;;;5005489;28;20358;-80
2022/05/02 05:07:14;;;;;;;17.35;14.13;;;;;;;;;;5017954;28;20517;-80
2022/05/02 05:09:40;;;;;;;16.45;13.48;;;;;;;;;;5002551;28;20060;-80
2022/05/02 05:12:33;;;;;;;17.23;12.88;;;;;;;;;;5001677;28;20040;-80
2022/05/02 05:18:10;;;;;;;19.65;13.43;;;;;;;;;;5015351;28;20072;-81
2022/05/02 05:20:45;;;;;;;19.25;11.75;;;;;;;;;;5014473;28;20135;-80
2022/05/02 05:23:20;;;;;;;13.25;10.68;;;;;;;;;;4998991;28;20069;-80
2022/05/02 05:25:59;;;;;;;16.88;10.27;;;;;;;;;;5018167;28;20037;-80
2022/05/02 05:28:55;;;;;;;16.85;10.48;;;7.40;99.90;;;;;;5016454;28;20428;-80
2022/05/02 05:31:29;;;;;;;12.57;10.35;;;;;;;;;;4998460;28;20481;-80
2022/05/02 05:34:05;;;;;;;13.30;10.32;;;;;;;;;;5017978;28;20137;-79
2022/05/02 05:36:50;;;;;;;13.98;9.02;;;;;;;;;;5017575;28;20046;-79
2022/05/02 05:39:22;;;;;;;8.48;7.57;;;;;;;;;;5000239;28;20550;-80
2022/05/02 05:41:48;;;;;;;12.70;8.82;;;;;;;;;;5017693;28;20059;-80
2022/05/02 05:44:20;;;;;;;13.45;7.50;;;;;;;;;;4984776;28;20030;-80
2022/05/02 05:46:52;;;;;;;11.77;8.68;;;;;;;;;;4998208;28;20132;-79
2022/05/02 05:49:21;;;;;;;11.98;8.27;;;;;;;;;;5020327;28;20075;-80
2022/05/02 05:51:48;;;;;;;10.45;7.85;;;;;;;;;;5000639;28;20037;-79
2022/05/02 05:54:20;;;;;;;10.13;6.35;;;;;;;;;;5001021;28;20073;-79
2022/05/02 05:56:51;;;;;;;8.65;6.03;;;;;;;;;;5013241;28;20133;-80
2022/05/02 05:59:40;;;;;;;6.82;5.63;;;;;;;;;;4981518;28;20124;-80
2022/05/02 06:02:14;;;;;;;8.50;6.15;;;;;;;;;;5013233;28;20050;-79
2022/05/02 06:04:42;;;;;;;10.13;5.72;;;;;;;;;;5020210;28;20128;-80
2022/05/02 06:07:09;;;;;;;7.18;5.00;;;;;;;;;;5019152;28;20044;-79
2022/05/02 06:09:36;;;;;;;8.13;5.22;;;;;;;;;;5019489;28;20041;-79
2022/05/02 06:12:05;;;;;;;8.13;5.20;;;;;;;;;;5000063;28;20076;-80
2022/05/02 06:18:27;;;;;;;8.80;5.40;;;;;;;;;;4989849;28;20136;-79
2022/05/02 06:20:12;;;;;;;6.45;5.05;;;;;;;;;;5023841;28;20049;-80
2022/05/02 06:22:40;;;;;;;6.22;4.88;;;;;;;;;;5019992;28;20524;-81
2022/05/02 06:25:06;;;;;;;4.40;3.75;;;;;;;;;;5017859;28;20627;-80
2022/05/02 06:27:33;;;;;;;5.55;5.00;;;;;;;;;;5019292;28;20132;-81
2022/05/02 06:30:02;;;;;;;7.38;4.28;;;;;;;;;;5000125;28;20068;-80
2022/05/02 06:32:28;;;;;;;7.22;4.05;;;;;;;;;;5013260;28;20045;-79
2022/05/02 06:34:55;;;;;;;3.83;3.42;;;;;;;;;;5028872;28;20041;-80
2022/05/02 06:37:21;;;;;;;4.10;3.28;;;;;;;;;;4998937;28;20041;-80
2022/05/02 06:39:50;;;;;;;6.72;3.55;;;;;;;;;;5000712;28;20045;-82
2022/05/02 06:42:48;;;;;;;6.45;3.72;;;;;;;;;;5000850;28;20392;-80
2022/05/02 06:45:23;;;;;;;6.80;4.00;;;;;;;;;;4989229;28;20104;-80
2022/05/02 06:47:55;;;;;;;10.73;4.35;;;;;;;;;;4997605;28;20048;-80
2022/05/02 06:50:24;;;;;;;7.82;3.97;;;;;;;;;;4984831;28;20137;-80
2022/05/02 06:52:59;;;;;;;4.93;3.63;;;;;;;;;;5001009;28;20065;-80
2022/05/02 06:55:25;;;;;;;4.00;3.63;;;;;;;;;;5000056;28;20042;-79
2022/05/02 06:58:10;;;;;;;6.40;3.25;;;;;;;;;;4997902;28;20056;-79
2022/05/02 07:00:40;;;;;;;9.90;2.92;;;;;;;;;;4997720;28;20041;-80
2022/05/02 07:03:16;;;;;;;7.40;2.90;;;;;;;;;;5005217;28;20048;-80
2022/05/02 07:05:51;;;;;;;6.60;2.13;;;;;;;;;;5016028;28;20053;-80
2022/05/02 07:08:38;;;;;;;4.25;2.33;;;;;;;;;;5015792;28;20107;-80
2022/05/02 07:11:05;;;;;;;3.67;2.30;;;;;;;;;;4999585;28;20497;-80
2022/05/02 07:13:45;;;;;;;4.32;2.45;;;;;;;;;;4984320;28;20049;-80
2022/05/02 07:16:24;;;;;;;4.25;2.80;;;;;;;;;;5019051;28;20029;-79
2022/05/02 07:19:09;;;;;;;5.57;2.70;;;;;;;;;;5016719;28;21076;-80
2022/05/02 07:21:43;;;;;;;3.70;2.67;;;;;;;;;;4996952;28;20052;-81
2022/05/02 07:24:09;;;;;;;;;;;;;;;;;;5018915;28;20636;-80
2022/05/02 07:26:36;;;;;;;2.85;2.63;;;;;;;;;;5017628;28;20062;-81
2022/05/02 07:29:04;;;;;;;3.85;2.88;;;;;;;;;;4999099;28;20196;-81
2022/05/02 07:31:31;;;;;;;4.55;2.55;;;;;;;;;;4999084;28;20042;-81
2022/05/02 07:33:58;;;;;;;5.60;2.50;;;;;;;;;;4997262;28;20034;-79
2022/05/02 07:36:24;;;;;;;4.35;2.70;;;;;;;;;;4977889;28;20064;-79
2022/05/02 07:38:55;;;;;;;4.68;3.25;;;;;;;;;;4999927;28;20053;-78
2022/05/02 07:41:23;;;;;;;5.97;2.70;;;;;;;;;;5002669;28;20190;-78
2022/05/02 07:43:50;;;;;;;7.57;2.97;;;;;;;;;;5000277;28;20053;-78
2022/05/02 07:46:20;;;;;;;8.73;3.35;;;;;;;;;;4998648;28;20049;-78
2022/05/02 07:48:46;;;;;;;7.35;3.60;;;;;;;;;;4998882;28;20132;-78
2022/05/02 07:51:13;;;;;;;4.47;3.03;;;;;;;;;;5002975;28;20056;-78
2022/05/02 07:53:41;;;;;;;3.50;3.10;;;;;;;;;;5000581;28;20374;-78
2022/05/02 07:56:09;;;;;;;6.20;3.25;;;;;;;;;;4997234;28;20046;-79
2022/05/02 07:58:37;;;;;;;10.75;3.38;;;;;;;;;;4997512;28;20037;-79
2022/05/02 08:01:03;;;;;;;4.25;3.20;;;;;;;;;;4994363;28;20052;-78
2022/05/02 08:03:29;;;;;;;4.13;3.25;;;;;;;;;;4999203;28;20033;-79
2022/05/02 08:05:58;;;;;;;4.68;3.65;;;;;;;;;;4994378;28;20038;-79
2022/05/02 08:08:33;;;;;;;5.47;3.38;;;;;;;;;;4996756;28;20161;-79
2022/05/02 08:11:15;;;;;;;5.18;3.20;;;;;;;;;;4995491;28;20050;-79
2022/05/02 08:13:41;;;;;;;8.55;3.97;;;;;;;;;;4995268;28;20658;-78
2022/05/02 08:16:23;;;;;;;6.82;4.05;;;;;;;;;;4994996;28;20042;-79
2022/05/02 08:19:10;;;;;;;5.20;3.63;;;;;;;;;;4999675;28;20453;-78
2022/05/02 08:28:07;;;;;;;6.50;4.18;;;;;;;;;;5003577;28;20065;-79
2022/05/02 08:30:44;;;;;;;4.93;4.15;;;;;;;;;;5021422;28;20149;-82
2022/05/02 08:33:12;;;;;;;5.57;3.88;;;;;;;;;;5003269;28;20046;-79
2022/05/02 08:35:59;;;;;;;4.10;3.70;;;;;;;;;;5020708;28;20037;-79
2022/05/02 08:38:44;;;;;;;13.90;4.40;;;;;;;;;;5022555;28;20068;-79
2022/05/02 08:41:28;;;;;;;6.25;3.65;;;;;;;;;;4993107;28;20077;-80
2022/05/02 08:43:54;;;;;;;;;;;;;;;;;;5017702;28;20053;-80
2022/05/02 08:46:26;;;;;;;5.13;4.15;;;;;;;;;;5019835;28;20442;-80
2022/05/02 08:49:32;;;;;;;5.85;4.20;;;;;;;;;;5000931;28;20047;-79
2022/05/02 08:51:58;;;;;;;5.85;4.00;;;;;;;;;;5024863;28;20152;-80
2022/05/02 08:54:30;;;;;;;8.30;4.57;;;;;;;;;;5034692;28;20054;-79
2022/05/02 08:57:08;;;;;;;10.13;4.68;;;;;;;;;;5037557;28;20044;-79
2022/05/02 09:00:05;;;;;;;6.50;4.25;;;;;;;;;;5023171;28;20050;-79
2022/05/02 09:02:50;;;;;;;7.85;4.38;;;;;;;;;;5020529;28;20532;-78
2022/05/02 09:05:17;;;;;;;8.57;4.38;;;;;;;;;;4999525;28;20524;-78
2022/05/02 09:07:55;;;;;;;9.38;4.45;;;;;;;;;;5025391;28;20095;-79
2022/05/02 09:10:40;;;;;;;9.35;4.07;;;;;;;;;;5023664;28;20041;-79
2022/05/02 09:13:21;;;;;;;8.20;4.55;;;;;;;;;;5010918;28;20408;-85
2022/05/02 09:16:06;;;;;;;6.25;4.75;;;;;;;;;;5004453;28;20049;-79
2022/05/02 09:18:47;;;;;;;8.93;5.68;;;;;;;;;;5036012;28;20600;-79
2022/05/02 09:21:32;;;;;;;8.73;5.60;;;;;;;;;;5026826;28;20041;-79
2022/05/02 09:24:10;;;;;;;8.93;5.25;;;;;;;;;;5024806;28;20710;-78
2022/05/02 09:26:46;;;;;;;8.02;5.80;;;;;;;;;;5008978;28;20505;-80
2022/05/02 09:29:37;;;;;;;9.20;6.25;;;13.90;99.90;;;;;;5006755;28;20049;-81
2022/05/02 09:32:08;;;;;;;7.80;5.68;;;;;;;;;;5007690;28;20049;-81
2022/05/02 09:34:38;;;;;;;11.02;5.97;;;;;;;;;;5027203;28;20869;-79
2022/05/02 09:37:06;;;;;;;10.98;6.75;;;;;;;;;;5008230;28;20436;-87
2022/05/02 09:39:48;;;;;;;7.90;6.40;;;;;;;;;;5007259;28;20033;-79
2022/05/02 09:42:33;;;;;;;13.98;7.20;;;;;;;;;;5024540;28;20088;-80
2022/05/02 09:50:48;;;;;;;11.85;6.85;;;;;;;;;;5023860;28;20056;-80
2022/05/02 09:53:17;;;;;;;10.68;6.78;;;;;;;;;;5023755;28;20740;-80
2022/05/02 09:58:43;;;;;;;9.90;6.68;;;;;;;;;;5014556;28;20072;-80
2022/05/02 10:01:26;;;;;;;10.95;6.78;;;;;;;;;;5016857;28;20041;-80
2022/05/02 10:03:59;;;;;;;13.02;6.93;;;;;;;;;;5016220;28;20042;-79
2022/05/02 10:06:47;;;;;;;9.70;6.78;;;;;;;;;;4987138;28;20050;-79
2022/05/02 10:09:31;;;;;;;11.02;6.47;;;;;;;;;;5022552;28;20570;-81
2022/05/02 10:12:25;;;;;;;17.50;7.35;;;;;;;;;;5015273;28;20049;-80
2022/05/02 10:15:00;;;;;;;9.00;6.43;;;;;;;;;;4983403;28;20058;-80
2022/05/02 10:17:45;;;;;;;9.18;6.57;;;;;;;;;;4984888;28;20303;-78
2022/05/02 10:20:22;;;;;;;11.82;7.15;;;;;;;;;;5001323;28;20041;-79
2022/05/02 10:22:59;;;;;;;9.02;6.30;;;;;;;;;;5015545;28;20607;-81
2022/05/02 10:25:43;;;;;;;8.75;6.20;;;;;;;;;;5021941;28;20420;-80
2022/05/02 10:28:36;;;;;;;12.02;6.20;;;;;;;;;;5011447;28;20114;-80
2022/05/02 10:31:09;;;;;;;6.72;5.80;;;;;;;;;;5016426;28;20112;-79
2022/05/02 10:33:54;;;;;;;11.02;6.22;;;;;;;;;;5004170;28;20457;-80
2022/05/02 10:36:23;;;;;;;8.10;5.60;;;;;;;;;;4974940;28;20045;-80
2022/05/02 10:39:01;;;;;;;11.50;6.40;;;;;;;;;;5022697;28;20061;-79
2022/05/02 10:41:27;;;;;;;7.63;5.45;;;;;;;;;;4984720;28;20053;-81
2022/05/02 10:44:04;;;;;;;8.35;6.40;;;;;;;;;;5005569;28;20140;-81
2022/05/02 10:46:31;;;;;;;9.23;6.30;;;;;;;;;;5004238;28;20042;-80
2022/05/02 10:49:00;;;;;;;10.32;6.28;;;;;;;;;;5007268;28;20119;-82
2022/05/02 10:51:32;;;;;;;8.25;6.93;;;;;;;;;;5021440;28;20854;-81
2022/05/02 10:54:09;;;;;;;8.70;6.22;;;;;;;;;;5023393;28;20778;-81
2022/05/02 10:56:57;;;;;;;8.35;5.18;;;;;;;;;;5023092;28;20103;-79
2022/05/02 10:59:24;;;;;;;9.68;6.28;;;;;;;;;;5023376;28;20163;-80
2022/05/02 11:01:53;;;;;;;7.88;5.50;;;;;;;;;;5024140;28;20049;-78
2022/05/02 11:04:28;;;;;;;7.47;6.18;;;;;;;;;;5021038;28;20068;-81
2022/05/02 11:07:02;;;;;;;8.07;5.65;;;;;;;;;;5025361;28;20054;-80
2022/05/02 11:09:46;;;;;;;12.18;5.75;;;;;;;;;;5022565;28;20110;-81
2022/05/02 11:12:16;;;;;;;8.93;6.43;;;;;;;;;;5021669;28;20046;-81
2022/05/02 11:14:57;;;;;;;9.38;5.25;;;;;;;;;;4996399;28;20092;-80
2022/05/02 11:17:41;;;;;;;33.13;7.57;;;;;;;;;;5032039;28;20037;-81
2022/05/02 11:23:05;;;;;;;9.32;6.10;;;;;;;;;;5023782;28;20105;-78
2022/05/02 11:25:40;;;;;;;8.43;6.72;;;;;;;;;;5026678;28;20041;-82
2022/05/02 11:28:06;;;;;;;9.60;7.00;;;;;;;;;;4991793;28;20531;-80
2022/05/02 11:31:02;;;;;;;9.23;6.70;;;;;;;;;;5025303;28;20115;-79
2022/05/02 11:33:30;;;;;;;6.88;6.18;;;;;;;;;;5013291;28;20080;-82
2022/05/02 11:36:02;;;;;;;8.48;5.63;;;;;;;;;;5022740;28;20046;-81
2022/05/02 11:38:32;;;;;;;8.00;5.50;;;;;;;;;;4993375;28;20049;-81
2022/05/02 11:40:59;;;;;;;8.98;5.47;;;;;;;;;;5003246;28;20049;-80
2022/05/02 11:43:30;;;;;;;8.00;5.40;;;;;;;;;;5024865;28;20140;-81
2022/05/02 11:46:18;;;;;;;13.02;6.60;;;;;;;;;;5022099;28;20522;-80
2022/05/02 11:48:56;;;;;;;9.20;6.13;;;;;;;;;;4993381;28;20494;-79
2022/05/02 11:51:25;;;;;;;7.65;6.65;;;;;;;;;;5007633;28;20053;-80
2022/05/02 11:53:55;;;;;;;7.15;5.65;;;;;;;;;;5025387;28;20057;-80
2022/05/02 11:56:24;;;;;;;5.97;4.78;;;;;;;;;;5005726;28;20072;-79
2022/05/02 11:59:00;;;;;;;7.13;5.05;;;;;;;;;;5026381;28;20503;-80
2022/05/02 12:01:29;;;;;;;6.05;5.03;;;;;;;;;;5025897;28;20042;-81
2022/05/02 12:04:00;;;;;;;8.82;5.20;;;;;;;;;;5023513;28;20057;-80
2022/05/02 12:06:31;;;;;;;6.40;5.13;;;;;;;;;;5024760;28;20072;-81
2022/05/02 12:09:00;;;;;;;11.90;5.63;;;;;;;;;;4984815;28;20049;-81
2022/05/02 12:11:26;;;;;;;7.32;5.22;;;;;;;;;;5031664;28;20045;-80
2022/05/02 12:13:52;;;;;;;8.75;5.15;;;;;;;;;;5018570;28;20049;-81
2022/05/02 12:16:19;;;;;;;9.05;4.18;;;;;;;;;;5017657;28;20037;-79
2022/05/02 12:18:49;;;;;;;4.78;3.63;;;;;;;;;;5003060;28;20524;-78
2022/05/02 12:21:21;;;;;;;5.68;4.90;;;;;;;;;;4996589;28;20057;-80
2022/05/02 12:23:47;;;;;;;6.15;3.90;;;;;;;;;;5005384;28;20050;-80
2022/05/02 12:26:18;;;;;;;8.10;4.80;;;;;;;;;;4981743;28;20048;-80
2022/05/02 12:28:46;;;;;;;8.98;4.45;;;;;;;;;;5019507;28;20049;-80
2022/05/02 12:31:20;;;;;;;7.47;5.55;;;;;;;;;;5021361;28;20406;-80
2022/05/02 12:33:55;;;;;;;6.15;4.30;;;;;;;;;;5022216;28;20095;-79
2022/05/02 12:36:25;;;;;;;5.13;4.03;;;;;;;;;;5021161;28;20057;-85
2022/05/02 12:38:55;;;;;;;5.57;4.57;;;;;;;;;;5022491;28;20041;-80
2022/05/02 12:41:24;;;;;;;7.35;4.88;;;;;;;;;;5023087;28;20050;-81
2022/05/02 12:43:52;;;;;;;7.90;3.50;;;;;;;;;;5020121;28;20049;-80
2022/05/02 12:46:21;;;;;;;6.50;3.80;;;;;;;;;;5021990;28;20513;-80
2022/05/02 12:48:55;;;;;;;4.18;3.63;;;;;;;;;;5017422;28;20176;-79
2022/05/02 12:51:32;;;;;;;4.53;3.50;;;;;;;;;;5018230;28;20045;-80
2022/05/02 12:54:28;;;;;;;8.73;4.47;;;;;;;;;;5021681;28;20037;-79
2022/05/02 13:02:36;;;;;;;5.88;3.50;;;;;;;;;;5005429;28;20510;-82
2022/05/02 13:05:07;;;;;;;8.23;4.13;;;;;;;;;;4984268;28;20057;-79
2022/05/02 13:07:44;;;;;;;7.10;4.82;;;;;;;;;;5015074;28;20132;-80
2022/05/02 13:10:18;;;;;;;32.67;6.72;;;;;;;;;;5020010;28;20053;-79
2022/05/02 13:12:44;;;;;;;;;;;;;;;;;;5023004;28;20071;-78
2022/05/02 13:15:11;;;;;;;9.55;4.00;;;;;;;;;;5002909;28;20416;-78
2022/05/02 13:17:37;;;;;;;7.55;3.75;;;;;;;;;;5020410;28;20060;-80
2022/05/02 13:20:13;;;;;;;5.30;4.35;;;;;;;;;;5018998;28;20053;-79
2022/05/02 13:22:59;;;;;;;6.03;4.15;;;;;;;;;;4999713;28;20053;-79
2022/05/02 13:25:43;;;;;;;5.80;3.90;;;;;;;;;;5024294;28;20053;-79
2022/05/02 13:28:15;;;;;;;3.97;3.53;;;;;;;;;;5021879;28;20053;-79
2022/05/02 13:30:43;;;;;;;6.30;3.33;;;;;;;;;;5025552;28;20566;-79
2022/05/02 13:33:11;;;;;;;8.05;3.85;;;;;;;;;;5023935;28;20041;-78
2022/05/02 13:35:39;;;;;;;4.75;3.50;;;;;;;;;;5007908;28;20336;-79
2022/05/02 13:38:11;;;;;;;4.78;3.70;;;;;;;;;;5033029;28;20172;-80
2022/05/02 13:40:45;;;;;;;4.75;2.88;;;;;;;;;;5039812;28;20064;-79
2022/05/02 13:43:13;;;;;;;5.60;3.80;;;;;;;;;;5038760;28;20105;-80
2022/05/02 13:46:03;;;;;;;6.10;2.90;;;;;;;;;;5009110;28;20045;-80
2022/05/02 13:48:29;;;;;;;3.38;2.67;;;;;;;;;;5013578;28;20068;-79
2022/05/02 13:51:08;;;;;;;6.07;2.95;;;;;;;;;;5022089;28;20481;-80
2022/05/02 13:53:50;;;;;;;5.03;2.88;;;;;;;;;;5019971;28;20191;-80
2022/05/02 13:56:16;;;;;;;6.10;2.78;;;;;;;;;;5021619;28;20044;-82
2022/05/02 13:58:52;;;;;;;5.20;2.83;;;;;;;;;;5003919;28;20038;-79
2022/05/02 14:01:28;;;;;;;8.55;2.00;;;;;;;;;;5019722;28;20045;-79
2022/05/02 14:04:00;;;;;;;4.95;2.17;;;;;;;;;;5018841;28;20312;-80
2022/05/02 14:06:30;;;;;;;4.05;2.15;;;;;;;;;;5017293;28;20049;-82
2022/05/02 14:09:00;;;;;;;3.58;2.05;;;;;;;;;;5021274;28;20045;-80
2022/05/02 14:11:28;;;;;;;2.58;1.65;;;;;;;;;;5016283;28;20072;-80
2022/05/02 14:14:06;;;;;;;6.35;2.28;;;;;;;;;;5019301;28;20034;-82
2022/05/02 14:16:38;;;;;;;7.60;3.30;;;;;;;;;;5018530;28;20865;-83
2022/05/02 14:19:04;;;;;;;34.05;4.75;;;;;;;;;;5036092;28;20060;-83
2022/05/02 14:21:31;;;;;;;12.90;3.38;;;;;;;;;;5022112;28;20415;-80
2022/05/02 14:23:58;;;;;;;6.55;2.15;;;;;;;;;;5020891;28;20442;-79
2022/05/02 14:26:28;;;;;;;6.88;2.83;;;;;;;;;;5021955;28;20037;-79
2022/05/02 14:28:55;;;;;;;8.63;2.55;;;;;;;;;;5021340;28;20049;-79
2022/05/02 14:31:24;;;;;;;3.45;2.42;;;;;;;;;;5020897;28;20057;-83
2022/05/02 14:33:51;;;;;;;8.25;2.83;;;;;;;;;;5017972;28;20041;-79
2022/05/02 14:36:20;;;;;;;5.82;2.80;;;;;;;;;;5004917;28;20125;-79
2022/05/02 14:38:47;;;;;;;7.03;2.78;;;;;;;;;;5006659;28;20154;-80
2022/05/02 14:41:13;;;;;;;5.95;2.67;;;;;;;;;;5003353;28;20069;-79
2022/05/02 14:43:40;;;;;;;4.85;2.25;;;;;;;;;;5018692;28;20037;-81
2022/05/02 14:46:07;;;;;;;7.57;2.28;;;;;;;;;;5020158;28;20057;-79
2022/05/02 14:48:34;;;;;;;2.80;2.00;;;;;;;;;;5021773;28;20064;-79
2022/05/02 14:51:05;;;;;;;4.03;1.77;;;;;;;;;;5016333;28;20053;-78
2022/05/02 14:53:49;;;;;;;2.17;1.80;;;;;;;;;;5017407;28;20073;-78
2022/05/02 14:56:16;;;;;;;3.70;1.65;;;;;;;;;;5005463;28;20135;-79
2022/05/02 14:58:43;;;;;;;2.35;1.52;;;;;;;;;;5014068;28;20041;-79
2022/05/02 15:01:14;;;;;;;3.35;1.98;;;;;;;;;;5023278;28;20045;-80
2022/05/02 15:03:46;;;;;;;5.65;2.25;;;;;;;;;;5021317;28;20128;-79
2022/05/02 15:06:14;;;;;;;2.47;2.28;;;;;;;;;;5024237;28;20129;-79
2022/05/02 15:08:40;;;;;;;6.47;2.50;;;;;;;;;;5023104;28;20054;-83
2022/05/02 15:11:14;;;;;;;3.47;2.30;;;;;;;;;;5022814;28;20095;-78
2022/05/02 15:13:59;;;;;;;3.58;1.70;;;;;;;;;;5023414;28;20125;-79
2022/05/02 15:16:38;;;;;;;4.78;1.63;;;;;;;;;;5022669;28;20533;-79
2022/05/02 15:22:00;;;;;;;3.15;1.58;;;;;;;;;;5019464;28;20717;-80
2022/05/02 15:24:46;;;;;;;4.40;1.45;;;;;;;;;;5020086;28;20068;-80
2022/05/02 15:36:39;;;;;;;2.15;1.20;;;;;;;;;;5009281;28;20049;-79
2022/05/02 15:38:29;;;;;;;2.33;0.88;;;;;;;;;;5006120;28;20112;-81
2022/05/02 15:40:55;;;;;;;1.30;0.70;;;;;;;;;;5023448;28;20075;-79
2022/05/02 15:43:23;;;;;;;2.38;0.90;;;;;;;;;;5024566;28;20052;-78
2022/05/02 15:45:50;;;;;;;1.35;0.80;;;;;;;;;;5024543;28;20073;-78